createdAt,value
2023-04-20T05:03:09.673Z,23.56
2023-04-20T05:04:10.720Z,23.56
2023-04-20T05:05:10.242Z,23.54
2023-04-20T05:06:09.556Z,23.57
2023-04-20T05:07:09.621Z,23.57
2023-04-20T05:08:09.617Z,23.60
2023-04-20T05:09:09.634Z,23.60
2023-04-20T05:10:09.637Z,23.59
2023-04-20T05:11:10.713Z,23.60
2023-04-20T05:12:10.788Z,23.61
2023-04-20T05:13:10.798Z,23.61
2023-04-20T05:14:09.832Z,23.60
2023-04-20T05:15:09.851Z,23.63
2023-04-20T05:16:09.899Z,23.61
2023-04-20T05:17:09.892Z,23.64
2023-04-20T05:18:09.927Z,23.66
2023-04-20T05:19:10.039Z,23.61
2023-04-20T05:20:10.912Z,23.67
2023-04-20T05:21:09.913Z,23.66
2023-04-20T05:22:10.910Z,23.66
2023-04-20T05:23:09.900Z,23.63
2023-04-20T05:24:09.932Z,23.64
2023-04-20T05:25:11.631Z,23.60
2023-04-20T05:26:10.897Z,23.61
2023-04-20T05:27:09.903Z,23.63
2023-04-20T05:28:10.875Z,23.59
2023-04-20T05:29:09.907Z,23.61
2023-04-20T05:30:20.224Z,23.61
2023-04-20T05:31:10.863Z,23.61
2023-04-20T05:32:11.003Z,23.59
2023-04-20T05:33:10.870Z,23.60
2023-04-20T05:34:10.864Z,23.59
2023-04-20T05:35:10.989Z,23.60
2023-04-20T05:36:10.846Z,23.57
2023-04-20T05:37:09.824Z,23.57
2023-04-20T05:38:10.817Z,23.60
2023-04-20T05:39:10.806Z,23.60
2023-04-20T05:40:09.794Z,23.59
2023-04-20T05:41:10.801Z,23.60
2023-04-20T05:42:09.799Z,23.60
2023-04-20T05:43:10.767Z,23.61
2023-04-20T05:44:09.765Z,23.60
2023-04-20T05:45:10.770Z,23.61
2023-04-20T05:46:10.783Z,23.59
2023-04-20T05:47:10.742Z,23.59
2023-04-20T05:48:09.744Z,23.60
2023-04-20T05:49:10.749Z,23.59
2023-04-20T05:50:10.758Z,23.61
2023-04-20T05:51:09.739Z,23.59
2023-04-20T05:52:10.706Z,23.61
2023-04-20T05:53:09.714Z,23.63
2023-04-20T05:54:10.688Z,23.63
2023-04-20T05:55:10.703Z,23.63
2023-04-20T05:56:10.710Z,23.67
2023-04-20T05:57:10.689Z,23.64
2023-04-20T05:58:10.667Z,23.64
2023-04-20T05:59:10.661Z,23.64
2023-04-20T06:00:10.685Z,23.66
2023-04-20T06:01:09.665Z,23.67
2023-04-20T06:02:11.073Z,23.64
2023-04-20T06:03:09.904Z,23.00
2023-04-20T06:05:09.875Z,23.28
2023-04-20T06:06:10.639Z,23.32
2023-04-20T06:07:09.665Z,23.48
2023-04-20T06:08:10.617Z,23.57
2023-04-20T06:09:09.608Z,23.39
2023-04-20T06:10:09.630Z,23.42
2023-04-20T06:11:10.689Z,23.67
2023-04-20T06:12:10.702Z,23.71
2023-04-20T06:13:10.725Z,23.68
2023-04-20T06:14:10.748Z,23.71
2023-04-20T06:15:10.914Z,23.80
2023-04-20T06:16:11.055Z,23.88
2023-04-20T06:17:10.804Z,23.92
2023-04-20T06:18:10.979Z,23.95
2023-04-20T06:19:11.179Z,24.00
2023-04-20T06:20:10.891Z,24.05
2023-04-20T06:21:10.860Z,24.05
2023-04-20T06:22:10.807Z,24.12
2023-04-20T06:23:10.846Z,24.15
2023-04-20T06:24:09.820Z,24.18
2023-04-20T06:25:10.800Z,24.22
2023-04-20T06:26:09.809Z,24.23
2023-04-20T06:27:10.818Z,24.26
2023-04-20T06:28:10.901Z,24.29
2023-04-20T06:29:10.809Z,24.29
2023-04-20T06:30:10.796Z,24.33
2023-04-20T06:31:09.871Z,24.34
2023-04-20T06:32:10.833Z,24.33
2023-04-20T06:33:12.462Z,24.39
2023-04-20T06:34:11.073Z,24.37
2023-04-20T06:35:11.091Z,24.39
2023-04-20T06:36:11.100Z,24.39
2023-04-20T06:37:11.488Z,24.43
2023-04-20T06:38:10.112Z,24.40
2023-04-20T06:39:11.193Z,24.13
2023-04-20T06:40:10.202Z,24.16
2023-04-20T06:41:11.246Z,24.25
2023-04-20T06:42:11.256Z,24.32
2023-04-20T06:43:11.265Z,24.34
2023-04-20T06:44:10.231Z,24.37
2023-04-20T06:45:11.241Z,24.43
2023-04-20T06:46:11.301Z,24.44
2023-04-20T06:47:11.313Z,24.49
2023-04-20T06:48:23.982Z,24.49
2023-04-20T06:49:11.395Z,24.49
2023-04-20T06:50:11.376Z,24.51
2023-04-20T06:51:11.352Z,24.54
2023-04-20T06:52:11.476Z,24.56
2023-04-20T06:53:11.331Z,24.56
2023-04-20T06:54:10.339Z,24.54
2023-04-20T06:55:10.374Z,24.57
2023-04-20T06:56:11.325Z,24.56
2023-04-20T06:57:10.461Z,24.54
2023-04-20T06:58:10.380Z,24.40
2023-04-20T06:59:10.301Z,24.29
2023-04-20T07:00:11.300Z,24.26
2023-04-20T07:01:10.360Z,24.37
2023-04-20T07:02:11.499Z,24.37
2023-04-20T07:03:11.450Z,24.36
2023-04-20T07:04:11.346Z,24.40
2023-04-20T07:05:11.273Z,24.43
2023-04-20T07:06:11.243Z,24.46
2023-04-20T07:07:11.266Z,24.47
2023-04-20T07:08:11.252Z,24.51
2023-04-20T07:09:11.236Z,24.56
2023-04-20T07:10:11.229Z,24.54
2023-04-20T07:11:10.259Z,24.58
2023-04-20T07:12:11.233Z,24.58
2023-04-20T07:13:11.235Z,24.60
2023-04-20T07:14:10.184Z,24.60
2023-04-20T07:15:11.213Z,24.61
2023-04-20T07:16:10.294Z,24.60
2023-04-20T07:17:10.186Z,24.61
2023-04-20T07:18:10.221Z,24.61
2023-04-20T07:19:10.162Z,24.63
2023-04-20T07:20:11.206Z,24.61
2023-04-20T07:21:11.166Z,24.60
2023-04-20T07:22:11.156Z,24.60
2023-04-20T07:23:10.137Z,24.61
2023-04-20T07:24:10.135Z,24.63
2023-04-20T07:25:10.133Z,24.60
2023-04-20T07:26:11.130Z,24.60
2023-04-20T07:27:11.134Z,24.63
2023-04-20T07:28:11.101Z,24.58
2023-04-20T07:29:11.114Z,24.60
2023-04-20T07:30:12.240Z,24.61
2023-04-20T07:31:11.184Z,24.60
2023-04-20T07:32:11.270Z,24.60
2023-04-20T07:33:11.341Z,24.58
2023-04-20T07:34:10.291Z,24.60
2023-04-20T07:35:10.451Z,24.58
2023-04-20T07:37:29.774Z,24.56
2023-04-20T07:38:30.732Z,24.56
2023-04-20T07:39:29.721Z,24.57
2023-04-20T07:40:30.719Z,24.58
2023-04-20T07:41:30.706Z,24.54
2023-04-20T07:42:30.752Z,24.56
2023-04-20T07:43:29.710Z,24.54
2023-04-20T07:44:30.855Z,24.30
2023-04-20T07:45:30.734Z,24.36
2023-04-20T07:46:30.691Z,24.37
2023-04-20T07:47:30.713Z,24.42
2023-04-20T07:48:30.743Z,24.46
2023-04-20T07:49:29.822Z,24.44
2023-04-20T07:50:30.870Z,24.46
2023-04-20T07:51:31.446Z,24.43
2023-04-20T07:52:29.969Z,24.43
2023-04-20T07:53:31.024Z,24.42
2023-04-20T07:54:31.054Z,24.42
2023-04-20T07:55:30.100Z,24.39
2023-04-20T07:56:31.145Z,24.37
2023-04-20T07:57:30.198Z,24.37
2023-04-20T07:58:31.250Z,24.37
2023-04-20T07:59:31.271Z,24.37
2023-04-20T08:00:30.297Z,24.37
2023-04-20T08:01:30.345Z,24.34
2023-04-20T08:02:31.474Z,24.36
2023-04-20T08:03:30.628Z,24.34
2023-04-20T08:04:31.760Z,24.32
2023-04-20T08:05:31.671Z,24.25
2023-04-20T08:06:30.593Z,24.26
2023-04-20T08:07:31.617Z,24.29
2023-04-20T08:08:31.674Z,24.23
2023-04-20T08:09:31.710Z,24.23
2023-04-20T08:10:30.723Z,24.25
2023-04-20T08:11:30.787Z,24.19
2023-04-20T08:12:31.838Z,24.18
2023-04-20T08:13:31.863Z,24.18
2023-04-20T08:14:31.937Z,24.20
2023-04-20T08:15:32.052Z,24.22
2023-04-20T08:16:31.131Z,24.19
2023-04-20T08:17:32.070Z,24.16
2023-04-20T08:18:32.344Z,24.16
2023-04-20T08:19:32.099Z,24.20
2023-04-20T08:21:31.182Z,24.19
2023-04-20T08:22:32.219Z,24.20
2023-04-20T08:23:32.263Z,24.20
2023-04-20T08:24:31.302Z,24.23
2023-04-20T08:25:32.345Z,24.22
2023-04-20T08:26:32.382Z,24.20
2023-04-20T08:27:31.426Z,24.20
2023-04-20T08:28:33.825Z,24.19
2023-04-20T08:29:31.465Z,24.22
2023-04-20T08:30:32.492Z,24.20
2023-04-20T08:31:32.550Z,24.16
2023-04-20T08:32:32.526Z,24.18
2023-04-20T08:33:31.421Z,24.19
2023-04-20T08:34:32.415Z,24.19
2023-04-20T08:35:32.414Z,24.16
2023-04-20T08:36:32.437Z,24.18
2023-04-20T08:37:33.173Z,24.20
2023-04-20T08:38:34.053Z,24.19
2023-04-20T08:39:32.391Z,24.22
2023-04-20T08:40:32.377Z,24.19
2023-04-20T08:41:31.382Z,24.19
2023-04-20T08:42:32.469Z,24.15
2023-04-20T08:43:31.355Z,24.16
2023-04-20T08:44:32.383Z,24.13
2023-04-20T08:45:32.383Z,24.16
2023-04-20T08:46:32.610Z,24.12
2023-04-20T08:47:32.414Z,24.15
2023-04-20T08:48:33.644Z,24.13
2023-04-20T08:49:31.337Z,24.12
2023-04-20T08:50:32.353Z,24.11
2023-04-20T08:51:32.389Z,24.15
2023-04-20T08:52:31.380Z,24.15
2023-04-20T08:53:31.402Z,24.15
2023-04-20T08:54:32.523Z,23.74
2023-04-20T08:55:32.441Z,23.85
2023-04-20T08:56:32.454Z,23.94
2023-04-20T08:57:32.965Z,23.97
2023-04-20T08:58:31.534Z,23.98
2023-04-20T08:59:32.598Z,24.00
2023-04-20T09:00:32.641Z,24.04
2023-04-20T09:01:35.529Z,24.05
2023-04-20T09:02:32.795Z,24.05
2023-04-20T09:03:32.842Z,24.09
2023-04-20T09:04:32.839Z,24.07
2023-04-20T09:05:32.715Z,24.07
2023-04-20T09:06:32.678Z,24.04
2023-04-20T09:07:32.682Z,24.07
2023-04-20T09:08:32.670Z,24.07
2023-04-20T09:09:32.651Z,24.09
2023-04-20T09:10:32.644Z,24.07
2023-04-20T09:11:31.624Z,24.05
2023-04-20T09:12:31.628Z,24.05
2023-04-20T09:13:32.638Z,24.11
2023-04-20T09:14:31.656Z,24.08
2023-04-20T09:15:31.618Z,24.11
2023-04-20T09:16:32.675Z,24.09
2023-04-20T09:17:32.645Z,24.09
2023-04-20T09:18:32.613Z,24.09
2023-04-20T09:19:32.605Z,24.09
2023-04-20T09:20:31.586Z,24.04
2023-04-20T09:21:31.599Z,24.09
2023-04-20T09:22:31.593Z,24.08
2023-04-20T09:23:32.616Z,24.08
2023-04-20T09:24:31.683Z,24.08
2023-04-20T09:25:32.709Z,24.07
2023-04-20T09:26:31.762Z,24.08
2023-04-20T09:27:32.801Z,24.02
2023-04-20T09:28:32.834Z,24.04
2023-04-20T09:29:31.870Z,24.04
2023-04-20T09:30:32.930Z,24.05
2023-04-20T09:31:33.028Z,24.04
2023-04-20T09:32:32.079Z,24.05
2023-04-20T09:33:32.081Z,24.05
2023-04-20T09:34:32.160Z,24.04
2023-04-20T09:35:32.173Z,24.01
2023-04-20T09:36:33.219Z,24.04
2023-04-20T09:37:32.273Z,24.01
2023-04-20T09:38:32.330Z,24.01
2023-04-20T09:39:33.359Z,24.05
2023-04-20T09:40:32.416Z,24.04
2023-04-20T09:41:33.496Z,24.05
2023-04-20T09:42:33.503Z,24.01
2023-04-20T09:43:33.555Z,24.00
2023-04-20T09:44:33.629Z,24.02
2023-04-20T09:45:33.682Z,24.02
2023-04-20T09:46:32.752Z,24.00
2023-04-20T09:47:34.495Z,24.02
2023-04-20T09:48:33.800Z,23.98
2023-04-20T09:49:32.885Z,23.94
2023-04-20T09:50:45.712Z,23.98
2023-04-20T09:51:33.924Z,23.98
2023-04-20T09:52:33.975Z,23.98
2023-04-20T09:53:33.894Z,24.00
2023-04-20T09:54:32.878Z,23.95
2023-04-20T09:55:33.900Z,23.95
2023-04-20T09:56:33.888Z,24.00
2023-04-20T09:57:33.892Z,23.98
2023-04-20T09:58:33.869Z,24.01
2023-04-20T09:59:33.860Z,24.00
2023-04-20T10:00:32.851Z,24.02
2023-04-20T10:01:33.888Z,24.00
2023-04-20T10:02:34.059Z,24.02
2023-04-20T10:03:34.096Z,23.98
2023-04-20T10:04:33.138Z,24.00
2023-04-20T10:05:34.044Z,24.00
2023-04-20T10:06:34.124Z,23.98
2023-04-20T10:07:34.159Z,23.98
2023-04-20T10:08:34.201Z,23.97
2023-04-20T10:09:34.259Z,23.97
2023-04-20T10:10:33.296Z,24.00
2023-04-20T10:11:48.811Z,23.98
2023-04-20T10:12:34.336Z,24.00
2023-04-20T10:13:34.335Z,24.00
2023-04-20T10:14:33.324Z,23.98
2023-04-20T10:15:34.321Z,24.01
2023-04-20T10:16:34.382Z,23.98
2023-04-20T10:17:34.431Z,23.98
2023-04-20T10:18:33.463Z,23.98
2023-04-20T10:19:34.280Z,24.00
2023-04-20T10:20:34.287Z,23.98
2023-04-20T10:21:34.266Z,23.98
2023-04-20T10:22:34.328Z,23.98
2023-04-20T10:23:33.276Z,24.00
2023-04-20T10:24:34.267Z,24.02
2023-04-20T10:25:34.236Z,23.98
2023-04-20T10:26:33.249Z,24.01
2023-04-20T10:27:34.235Z,24.00
2023-04-20T10:28:34.235Z,24.00
2023-04-20T10:29:35.906Z,24.01
2023-04-20T10:30:33.222Z,24.01
2023-04-20T10:31:34.309Z,24.00
2023-04-20T10:32:33.259Z,24.01
2023-04-20T10:33:34.178Z,23.98
2023-04-20T10:34:33.215Z,24.01
2023-04-20T10:35:34.179Z,24.01
2023-04-20T10:36:33.219Z,24.01
2023-04-20T10:37:33.480Z,23.97
2023-04-20T10:38:33.164Z,24.00
2023-04-20T10:39:34.142Z,23.98
2023-04-20T10:40:33.192Z,24.00
2023-04-20T10:41:33.135Z,23.98
2023-04-20T10:42:34.490Z,23.98
2023-04-20T10:43:33.153Z,23.94
2023-04-20T10:44:33.116Z,23.97
2023-04-20T10:45:34.108Z,24.01
2023-04-20T10:46:34.216Z,23.94
2023-04-20T10:47:34.486Z,23.95
2023-04-20T10:48:33.088Z,23.95
2023-04-20T10:49:34.084Z,23.94
2023-04-20T10:50:34.077Z,23.91
2023-04-20T10:51:34.069Z,23.94
2023-04-20T10:52:34.077Z,23.91
2023-04-20T10:53:34.057Z,23.95
2023-04-20T10:54:34.093Z,23.94
2023-04-20T10:55:34.095Z,23.94
2023-04-20T10:56:33.133Z,23.98
2023-04-20T10:57:34.186Z,23.98
2023-04-20T10:58:33.240Z,23.97
2023-04-20T10:59:34.289Z,24.00
2023-04-20T11:00:33.341Z,23.91
2023-04-20T11:01:34.451Z,23.98
2023-04-20T11:02:34.565Z,23.95
2023-04-20T11:03:34.731Z,23.95
2023-04-20T11:04:33.607Z,23.95
2023-04-20T11:05:33.658Z,23.97
2023-04-20T11:06:34.651Z,23.94
2023-04-20T11:07:34.710Z,23.95
2023-04-20T11:08:34.763Z,23.95
2023-04-20T11:09:34.809Z,23.91
2023-04-20T11:10:34.889Z,23.94
2023-04-20T11:11:34.910Z,23.97
2023-04-20T11:12:34.967Z,23.97
2023-04-20T11:13:35.006Z,23.97
2023-04-20T11:14:35.070Z,23.95
2023-04-20T11:15:34.114Z,23.98
2023-04-20T11:16:48.032Z,23.94
2023-04-20T11:17:35.312Z,23.91
2023-04-20T11:18:34.143Z,23.91
2023-04-20T11:19:35.152Z,23.95
2023-04-20T11:20:35.123Z,23.94
2023-04-20T11:21:35.139Z,23.94
2023-04-20T11:22:35.125Z,23.97
2023-04-20T11:23:34.106Z,24.00
2023-04-20T11:24:35.116Z,23.95
2023-04-20T11:25:35.090Z,23.98
2023-04-20T11:26:35.174Z,23.98
2023-04-20T11:27:35.121Z,23.98
2023-04-20T11:28:35.091Z,23.98
2023-04-20T11:29:35.069Z,24.01
2023-04-20T11:30:35.066Z,23.98
2023-04-20T11:31:35.117Z,24.00
2023-04-20T11:32:35.211Z,23.97
2023-04-20T11:33:35.102Z,23.98
2023-04-20T11:34:34.058Z,23.98
2023-04-20T11:35:35.032Z,24.00
2023-04-20T11:36:34.033Z,23.97
2023-04-20T11:37:35.516Z,23.98
2023-04-20T11:38:35.020Z,23.98
2023-04-20T11:39:34.001Z,23.97
2023-04-20T11:40:35.024Z,23.97
2023-04-20T11:41:35.056Z,23.98
2023-04-20T11:42:34.185Z,23.98
2023-04-20T11:43:35.158Z,23.95
2023-04-20T11:44:35.192Z,23.98
2023-04-20T11:45:36.310Z,23.95
2023-04-20T11:46:34.410Z,23.97
2023-04-20T11:47:34.507Z,23.98
2023-04-20T11:48:35.480Z,23.95
2023-04-20T11:49:35.541Z,23.94
2023-04-20T11:50:35.606Z,23.97
2023-04-20T11:51:34.635Z,23.98
2023-04-20T11:52:35.723Z,23.97
2023-04-20T11:53:35.740Z,23.97
2023-04-20T11:54:35.792Z,23.94
2023-04-20T11:55:35.840Z,23.94
2023-04-20T11:56:34.915Z,23.97
2023-04-20T11:57:34.951Z,23.94
2023-04-20T11:58:35.145Z,23.95
2023-04-20T11:59:36.053Z,23.98
2023-04-20T12:00:35.113Z,23.95
2023-04-20T12:01:35.172Z,23.98
2023-04-20T12:02:36.355Z,23.95
2023-04-20T12:03:36.418Z,23.97
2023-04-20T12:04:36.700Z,23.95
2023-04-20T12:05:36.476Z,23.98
2023-04-20T12:06:36.451Z,23.97
2023-04-20T12:07:36.510Z,23.98
2023-04-20T12:08:35.563Z,23.95
2023-04-20T12:09:36.619Z,24.00
2023-04-20T12:10:36.687Z,23.97
2023-04-20T12:11:36.768Z,23.98
2023-04-20T12:12:36.809Z,23.95
2023-04-20T12:13:36.842Z,23.95
2023-04-20T12:14:36.929Z,23.97
2023-04-20T12:15:36.929Z,24.00
2023-04-20T12:16:36.230Z,24.00
2023-04-20T12:17:37.072Z,23.95
2023-04-20T12:18:37.080Z,23.97
2023-04-20T12:19:37.110Z,23.98
2023-04-20T12:20:36.140Z,24.00
2023-04-20T12:21:37.192Z,24.02
2023-04-20T12:22:37.228Z,24.01
2023-04-20T12:23:37.278Z,24.00
2023-04-20T12:24:37.311Z,24.02
2023-04-20T12:25:36.363Z,24.01
2023-04-20T12:26:38.679Z,24.02
2023-04-20T12:27:36.593Z,24.00
2023-04-20T12:28:37.631Z,24.01
2023-04-20T12:29:37.686Z,23.97
2023-04-20T12:30:36.757Z,23.87
2023-04-20T12:31:37.850Z,23.87
2023-04-20T12:32:37.820Z,23.85
2023-04-20T12:33:37.874Z,23.84
2023-04-20T12:34:36.854Z,23.84
2023-04-20T12:35:37.901Z,23.85
2023-04-20T12:36:36.952Z,23.87
2023-04-20T12:37:36.951Z,23.87
2023-04-20T12:38:36.974Z,23.83
2023-04-20T12:39:36.996Z,23.85
2023-04-20T12:40:38.037Z,23.85
2023-04-20T12:41:37.080Z,23.89
2023-04-20T12:42:38.140Z,23.85
2023-04-20T12:43:37.205Z,23.85
2023-04-20T12:44:38.229Z,23.84
2023-04-20T12:45:38.309Z,23.83
2023-04-20T12:46:37.420Z,23.84
2023-04-20T12:47:37.484Z,23.84
2023-04-20T12:48:37.478Z,23.78
2023-04-20T12:49:38.507Z,23.83
2023-04-20T12:50:37.567Z,23.81
2023-04-20T12:51:38.633Z,23.84
2023-04-20T12:52:38.694Z,23.81
2023-04-20T12:53:37.730Z,23.87
2023-04-20T12:54:38.791Z,23.84
2023-04-20T12:55:37.826Z,23.84
2023-04-20T12:56:37.898Z,23.88
2023-04-20T12:57:37.991Z,23.84
2023-04-20T12:58:38.027Z,23.85
2023-04-20T12:59:38.044Z,23.83
2023-04-20T13:00:38.154Z,23.84
2023-04-20T13:01:39.149Z,23.85
2023-04-20T13:02:38.604Z,23.83
2023-04-20T13:03:38.400Z,23.83
2023-04-20T13:04:39.378Z,23.84
2023-04-20T13:05:39.349Z,23.87
2023-04-20T13:06:39.406Z,23.83
2023-04-20T13:07:39.458Z,23.83
2023-04-20T13:08:39.480Z,23.83
2023-04-20T13:09:38.515Z,23.84
2023-04-20T13:10:38.509Z,23.83
2023-04-20T13:11:39.534Z,23.80
2023-04-20T13:12:39.584Z,23.83
2023-04-20T13:13:38.618Z,23.80
2023-04-20T13:14:39.614Z,23.77
2023-04-20T13:15:39.677Z,23.84
2023-04-20T13:16:39.763Z,23.84
2023-04-20T13:17:39.830Z,23.83
2023-04-20T13:18:39.753Z,23.80
2023-04-20T13:19:39.805Z,23.84
2023-04-20T13:20:38.878Z,23.83
2023-04-20T13:21:39.908Z,23.80
2023-04-20T13:22:47.004Z,23.81
2023-04-20T13:23:39.980Z,23.84
2023-04-20T13:24:38.919Z,23.81
2023-04-20T13:25:39.908Z,23.81
2023-04-20T13:26:39.916Z,23.78
2023-04-20T13:27:39.903Z,23.80
2023-04-20T13:28:38.884Z,23.83
2023-04-20T13:29:38.872Z,23.83
2023-04-20T13:30:38.874Z,23.81
2023-04-20T13:31:38.873Z,23.80
2023-04-20T13:32:39.947Z,23.83
2023-04-20T13:33:39.933Z,23.83
2023-04-20T13:34:39.877Z,23.83
2023-04-20T13:35:39.835Z,23.84
2023-04-20T13:36:38.818Z,23.85
2023-04-20T13:37:39.329Z,23.84
2023-04-20T13:38:38.836Z,23.83
2023-04-20T13:39:39.811Z,23.83
2023-04-20T13:40:39.810Z,23.85
2023-04-20T13:41:38.804Z,23.85
2023-04-20T13:42:39.798Z,23.85
2023-04-20T13:43:38.788Z,23.84
2023-04-20T13:44:39.789Z,23.83
2023-04-20T13:45:39.821Z,23.83
2023-04-20T13:46:39.776Z,23.84
2023-04-20T13:47:38.858Z,23.87
2023-04-20T13:48:39.756Z,23.84
2023-04-20T13:49:38.885Z,23.85
2023-04-20T13:50:39.747Z,23.89
2023-04-20T13:51:38.735Z,23.85
2023-04-20T13:52:39.727Z,23.81
2023-04-20T13:53:39.728Z,23.85
2023-04-20T13:54:39.713Z,23.83
2023-04-20T13:55:39.719Z,23.83
2023-04-20T13:56:38.697Z,23.81
2023-04-20T13:57:39.677Z,23.80
2023-04-20T13:58:39.686Z,23.84
2023-04-20T13:59:39.671Z,23.83
2023-04-20T14:00:39.714Z,23.87
2023-04-20T14:01:39.822Z,23.83
2023-04-20T14:02:39.843Z,23.83
2023-04-20T14:03:38.909Z,23.84
2023-04-20T14:04:39.846Z,23.83
2023-04-20T14:05:39.843Z,23.83
2023-04-20T14:06:38.799Z,23.83
2023-04-20T14:07:39.849Z,23.83
2023-04-20T14:08:39.862Z,23.85
2023-04-20T14:09:39.874Z,23.83
2023-04-20T14:10:39.927Z,23.81
2023-04-20T14:11:38.983Z,23.84
2023-04-20T14:12:40.016Z,23.84
2023-04-20T14:13:40.091Z,23.81
2023-04-20T14:14:40.100Z,23.80
2023-04-20T14:15:40.260Z,23.81
2023-04-20T14:16:40.142Z,23.78
2023-04-20T14:17:39.198Z,23.81
2023-04-20T14:18:39.186Z,23.80
2023-04-20T14:19:39.193Z,23.81
2023-04-20T14:20:39.182Z,23.80
2023-04-20T14:21:40.225Z,23.81
2023-04-20T14:22:40.178Z,23.80
2023-04-20T14:23:40.209Z,23.81
2023-04-20T14:24:39.213Z,23.78
2023-04-20T14:25:39.249Z,23.77
2023-04-20T14:26:39.229Z,23.78
2023-04-20T14:27:40.233Z,23.80
2023-04-20T14:28:40.234Z,23.80
2023-04-20T14:29:39.228Z,23.80
2023-04-20T14:30:39.213Z,23.77
2023-04-20T14:31:39.233Z,23.77
2023-04-20T14:32:39.284Z,23.76
2023-04-20T14:33:40.234Z,23.74
2023-04-20T14:34:40.234Z,23.73
2023-04-20T14:35:40.227Z,23.76
2023-04-20T14:36:39.238Z,23.74
2023-04-20T14:37:40.270Z,23.74
2023-04-20T14:38:40.267Z,23.74
2023-04-20T14:39:40.226Z,23.73
2023-04-20T14:40:40.230Z,23.76
2023-04-20T14:41:40.242Z,23.74
2023-04-20T14:42:40.245Z,23.76
2023-04-20T14:43:39.276Z,23.76
2023-04-20T14:44:39.248Z,23.73
2023-04-20T14:45:40.255Z,23.73
2023-04-20T14:46:40.153Z,23.71
2023-04-20T14:47:40.296Z,23.68
2023-04-20T14:48:40.267Z,23.68
2023-04-20T14:49:39.258Z,23.70
2023-04-20T14:50:39.238Z,23.67
2023-04-20T14:51:40.237Z,23.67
2023-04-20T14:52:39.236Z,23.66
2023-04-20T14:53:39.220Z,23.67
2023-04-20T14:54:40.208Z,23.68
2023-04-20T14:55:39.197Z,23.63
2023-04-20T14:56:39.193Z,23.66
2023-04-20T14:57:39.175Z,23.63
2023-04-20T14:58:40.183Z,23.63
2023-04-20T14:59:40.166Z,23.61
2023-04-20T15:00:40.161Z,23.60
2023-04-20T15:01:51.389Z,23.61
2023-04-20T15:02:40.314Z,23.60
2023-04-20T15:03:39.308Z,23.61
2023-04-20T15:04:40.211Z,23.59
2023-04-20T15:05:40.275Z,23.61
2023-04-20T15:06:39.115Z,23.57
2023-04-20T15:07:39.131Z,23.59
2023-04-20T15:08:40.113Z,23.53
2023-04-20T15:09:40.128Z,23.50
2023-04-20T15:10:39.095Z,23.53
2023-04-20T15:11:39.096Z,23.57
2023-04-20T15:12:40.076Z,23.49
2023-04-20T15:13:40.232Z,23.52
2023-04-20T15:14:39.076Z,23.48
2023-04-20T15:15:48.376Z,23.50
2023-04-20T15:16:40.100Z,23.54
2023-04-20T15:17:39.069Z,23.53
2023-04-20T15:18:40.058Z,23.56
2023-04-20T15:19:39.054Z,23.54
2023-04-20T15:20:40.575Z,23.59
2023-04-20T15:21:40.733Z,23.57
2023-04-20T15:22:40.036Z,23.56
2023-04-20T15:23:40.008Z,23.57
2023-04-20T15:24:40.078Z,23.57
2023-04-20T15:25:40.158Z,23.59
2023-04-20T15:26:40.161Z,23.57
2023-04-20T15:27:40.199Z,23.54
2023-04-20T15:28:39.254Z,23.61
2023-04-20T15:29:40.290Z,23.60
